Algona, IA

5:17 AM CDT on July 30, 2016 (GMT -0500)
Algona Municipal

Weather History for KAXA - January, 2013

Change the Weather History Date:

Saturday, January 19, 2013

  Actual Average Record
Temperature  
Mean Temperature 27 °F -  
Max Temperature 46 °F 23 °F 50 °F (2014)
Min Temperature 8 °F 8 °F -13 °F (2008)
Degree Days  
Heating Degree Days 38    
Moisture  
Dew Point 24 °F    
Average Humidity 75    
Maximum Humidity 93    
Minimum Humidity 57    
Precipitation  
Precipitation 0.00 in - - ()
Sea Level Pressure  
Sea Level Pressure 29.93 in    
Wind  
Wind Speed 14 mph (WNW)    
Max Wind Speed 29 mph    
Max Gust Speed 41 mph    
Visibility 10 miles    
Events Snow    
Averages and records for this station are not official NWS values.
T = Trace of Precipitation, MM = Missing Value Source: NWS Daily Summary

Daily Weather History Graph

Daily Weather History Graph

Search for Another Location

Airport or City:

Trip Planner

Search our weather history database for the weather conditions in past years. The results will help you decide how hot, cold, wet, or windy it might be!

Date:

Astronomy

Jan. 19, 2013 Rise Set
Actual Time 7:43 AM CST 5:12 PM CST
Civil Twilight 7:12 AM CST 5:44 PM CST
Nautical Twilight 6:37 AM CST 6:18 PM CST
Astronomical Twilight 6:03 AM CST 6:52 PM CST
Moon 11:41 AM CST (1/19) 1:16 AM CST (1/19)
Length of Visible Light 10h 31m
Length of Day
9h 29m
First Quarter, 57% of the Moon is Illuminated
Jan 19
First Quarter
Jan 26
Full
Feb 3
Last Quarter
Feb 10
New
Feb 17
First Quarter

Hourly Weather History & Observations

Time (CST) Temp. Windchill Dew Point Humidity Pressure Visibility Wind Dir Wind Speed Gust Speed Precip Events Conditions
12:15 AM 33.8 °F 27.7 °F 32.0 °F 93% 29.80 in 10.0 mi SSW 6.9 mph - N/A   Mostly Cloudy
12:35 AM 35.6 °F 28.6 °F 32.0 °F 87% 29.80 in 10.0 mi SW 9.2 mph - N/A   Overcast
12:55 AM 33.8 °F 27.0 °F 32.0 °F 93% 29.79 in 10.0 mi SW 8.1 mph - N/A   Mostly Cloudy
1:15 AM 35.6 °F 28.0 °F 32.0 °F 87% 29.79 in 10.0 mi SW 10.4 mph - N/A   Overcast
1:35 AM 35.6 °F 28.0 °F 32.0 °F 87% 29.79 in 10.0 mi SW 10.4 mph - N/A   Overcast
1:55 AM 33.8 °F 26.4 °F 32.0 °F 93% 29.79 in 10.0 mi SW 9.2 mph - N/A   Overcast
2:15 AM 33.8 °F 26.4 °F 32.0 °F 93% 29.79 in 10.0 mi SW 9.2 mph - N/A   Mostly Cloudy
2:35 AM 33.8 °F 26.4 °F 32.0 °F 93% 29.79 in 10.0 mi SSW 9.2 mph - N/A   Scattered Clouds
2:55 AM 33.8 °F 26.4 °F 32.0 °F 93% 29.78 in 10.0 mi SSW 9.2 mph - N/A   Mostly Cloudy
3:15 AM 33.8 °F - 32.0 °F 93% 29.77 in 10.0 mi North - - N/A   Overcast
3:35 AM 33.8 °F 27.0 °F 32.0 °F 93% 29.76 in 10.0 mi SSW 8.1 mph - N/A   Overcast
3:55 AM 33.8 °F 25.8 °F 32.0 °F 93% 29.76 in 10.0 mi SSW 10.4 mph - N/A   Overcast
4:15 AM 33.8 °F 26.4 °F 32.0 °F 93% 29.75 in 10.0 mi SSW 9.2 mph - N/A   Overcast
4:35 AM 33.8 °F 26.4 °F 32.0 °F 93% 29.75 in 10.0 mi SSW 9.2 mph - N/A   Overcast
4:55 AM 33.8 °F 25.8 °F 32.0 °F 93% 29.75 in 10.0 mi SSW 10.4 mph - N/A   Overcast
5:15 AM 33.8 °F 26.4 °F 32.0 °F 93% 29.75 in 10.0 mi SSW 9.2 mph - N/A   Overcast
5:35 AM 33.8 °F 25.8 °F 32.0 °F 93% 29.75 in 10.0 mi SSW 10.4 mph - N/A   Overcast
5:55 AM 33.8 °F 27.0 °F 32.0 °F 93% 29.75 in 10.0 mi SSW 8.1 mph - N/A   Overcast
6:55 AM 33.8 °F 25.3 °F 32.0 °F 93% 29.76 in 10.0 mi WSW 11.5 mph - N/A   Mostly Cloudy
7:15 AM 33.8 °F 25.3 °F 30.2 °F 87% 29.76 in 10.0 mi WSW 11.5 mph - N/A   Mostly Cloudy
7:55 AM 35.6 °F 27.1 °F 30.2 °F 81% 29.76 in 10.0 mi West 12.7 mph - N/A   Overcast
8:15 AM 35.6 °F 27.1 °F 30.2 °F 81% 29.76 in 10.0 mi WSW 12.7 mph - N/A   Mostly Cloudy
8:35 AM 35.6 °F 27.5 °F 30.2 °F 81% 29.77 in 10.0 mi West 11.5 mph - N/A   Mostly Cloudy
9:35 AM 39.2 °F 31.2 °F 32.0 °F 75% 29.81 in 10.0 mi West 13.8 mph - N/A   Clear
9:55 AM 39.2 °F 30.5 °F 30.2 °F 70% 29.82 in 10.0 mi West 16.1 mph - N/A   Clear
10:15 AM 39.2 °F 30.5 °F 30.2 °F 70% 29.83 in 10.0 mi WNW 16.1 mph 23.0 mph N/A   Clear
10:35 AM 39.2 °F 32.0 °F 30.2 °F 70% 29.83 in 10.0 mi WNW 11.5 mph 19.6 mph N/A   Scattered Clouds
11:15 AM 42.8 °F 34.8 °F 32.0 °F 66% 29.84 in 10.0 mi NW 17.3 mph 23.0 mph N/A   Clear
11:35 AM 42.8 °F - 32.0 °F 66% 29.84 in 10.0 mi North - - N/A   Clear
11:55 AM 44.6 °F 37.2 °F 32.0 °F 61% 29.83 in 10.0 mi NW 17.3 mph 23.0 mph N/A   Clear
12:15 PM 44.6 °F 37.4 °F 32.0 °F 61% 29.83 in 10.0 mi NW 16.1 mph 24.2 mph N/A   Clear
12:35 PM 46.4 °F 38.7 °F 32.0 °F 57% 29.83 in 10.0 mi NW 20.7 mph 26.5 mph N/A   Partly Cloudy
12:55 PM 46.4 °F 38.3 °F 32.0 °F 57% 29.84 in 10.0 mi NW 23.0 mph 28.8 mph N/A   Partly Cloudy
1:15 PM 46.4 °F 38.7 °F 32.0 °F 57% 29.84 in 10.0 mi NW 20.7 mph 27.6 mph N/A   Partly Cloudy
1:35 PM 46.4 °F 38.3 °F 32.0 °F 57% 29.85 in 10.0 mi NW 23.0 mph 28.8 mph N/A   Clear
1:55 PM 46.4 °F 38.3 °F 32.0 °F 57% 29.86 in 10.0 mi NW 23.0 mph 32.2 mph N/A   Clear
2:15 PM 46.4 °F 38.1 °F 32.0 °F 57% 29.87 in 10.0 mi NW 24.2 mph 33.4 mph N/A   Clear
2:35 PM 44.6 °F 34.9 °F 30.2 °F 57% 29.89 in 10.0 mi NW 28.8 mph 40.3 mph N/A   Clear
2:55 PM 44.6 °F 35.9 °F 30.2 °F 57% 29.90 in 10.0 mi NW 23.0 mph 41.4 mph N/A   Scattered Clouds
3:15 PM 42.8 °F 34.0 °F 32.0 °F 66% 29.91 in 10.0 mi NW 20.7 mph 32.2 mph N/A   Mostly Cloudy
3:35 PM 42.8 °F 32.7 °F 30.2 °F 61% 29.91 in 10.0 mi NW 27.6 mph 35.7 mph N/A   Mostly Cloudy
3:55 PM 41.0 °F 31.4 °F 30.2 °F 65% 29.93 in 10.0 mi NW 21.9 mph 32.2 mph N/A   Mostly Cloudy
4:15 PM 41.0 °F 30.7 °F 30.2 °F 65% 29.94 in 10.0 mi NW 25.3 mph 39.1 mph N/A   Mostly Cloudy
4:35 PM 33.8 °F 21.3 °F 28.4 °F 81% 29.97 in 10.0 mi North 24.2 mph 36.8 mph N/A Snow Light Snow
4:55 PM 32.0 °F 19.8 °F 28.4 °F 87% 29.99 in 10.0 mi NNW 20.7 mph 32.2 mph N/A Snow Light Snow
5:15 PM 30.2 °F 17.4 °F 26.6 °F 86% 30.00 in 10.0 mi NNW 20.7 mph - N/A   Mostly Cloudy
5:35 PM 32.0 °F 19.5 °F 26.6 °F 80% 30.02 in 10.0 mi NNW 21.9 mph 28.8 mph N/A Snow Light Snow
5:55 PM 28.4 °F 13.8 °F 23.0 °F 80% 30.04 in 10.0 mi NNW 25.3 mph 35.7 mph N/A Snow Light Snow
6:15 PM 24.8 °F 9.0 °F 19.4 °F 80% 30.06 in 10.0 mi NNW 25.3 mph 34.5 mph N/A Snow Light Snow
6:35 PM 23.0 °F 8.0 °F 17.6 °F 80% 30.07 in 10.0 mi NNW 20.7 mph 32.2 mph N/A Snow Light Snow
6:55 PM 23.0 °F 5.7 °F 15.8 °F 74% 30.09 in 10.0 mi NNW 28.8 mph 39.1 mph N/A Snow Light Snow
7:15 PM 21.2 °F 3.9 °F 14.0 °F 74% 30.11 in 10.0 mi NNW 26.5 mph 36.8 mph N/A Snow Light Snow
7:35 PM 19.4 °F 1.1 °F 12.2 °F 74% 30.13 in 10.0 mi NNW 27.6 mph 39.1 mph N/A Snow Light Snow
7:55 PM 17.6 °F -1.6 °F 6.8 °F 63% 30.15 in 10.0 mi NW 28.8 mph 39.1 mph N/A Snow Light Snow
8:15 PM 15.8 °F -3.1 °F 5.0 °F 62% 30.17 in 10.0 mi NW 25.3 mph 39.1 mph N/A Snow Light Snow
8:35 PM 15.8 °F -1.9 °F 5.0 °F 62% 30.17 in - NNW 21.9 mph 36.8 mph N/A Snow Light Snow
8:55 PM 14.0 °F -5.1 °F 5.0 °F 67% 30.18 in 10.0 mi NNW 24.2 mph 39.1 mph N/A Snow Light Snow
9:15 PM 12.2 °F -8.2 °F 1.4 °F 62% 30.19 in 10.0 mi NNW 26.5 mph 36.8 mph N/A Snow Light Snow
9:35 PM 12.2 °F -6.7 °F 3.2 °F 67% 30.20 in 10.0 mi NW 21.9 mph 28.8 mph N/A Snow Light Snow
9:55 PM 12.2 °F -6.3 °F 1.4 °F 62% 30.22 in 10.0 mi NNW 20.7 mph 32.2 mph N/A Snow Light Snow
10:15 PM 12.2 °F -4.8 °F 1.4 °F 62% 30.22 in 10.0 mi NW 17.3 mph 24.2 mph N/A   Partly Cloudy
10:35 PM 10.4 °F -8.2 °F 1.4 °F 67% 30.23 in 10.0 mi NW 19.6 mph 28.8 mph N/A Snow Light Snow
10:55 PM 10.4 °F -8.6 °F 1.4 °F 67% 30.23 in 10.0 mi NNW 20.7 mph 26.5 mph N/A   Clear
11:15 PM 10.4 °F -7.7 °F -0.4 °F 62% 30.24 in 10.0 mi NNW 18.4 mph 26.5 mph N/A Snow Light Snow
11:35 PM 8.6 °F -7.7 °F -0.4 °F 67% 30.25 in 10.0 mi NW 13.8 mph 23.0 mph N/A   Scattered Clouds
11:55 PM 8.6 °F -9.5 °F -0.4 °F 67% 30.25 in 10.0 mi NW 17.3 mph - N/A   Scattered Clouds